Time;durP1;ratioP1;P1;durP2;ratioP2;P2;SDS_P1;SDS_P2;PMS_P1;PMS_P2;Temp;Humidity;BMP_temperature;BMP_pressure;BME280_temperature;BME280_humidity;BME280_pressure;Samples;Min_cycle;Max_cycle;Signal;HPM_P1;HPM_P2
2023/03/25 00:01:18;;;;;;;0.63;0.63;;;;;;;;;;5085316;28;20439;-84
2023/03/25 00:03:49;;;;;;;0.73;0.50;;;;;;;;;;5084955;28;20979;-84
2023/03/25 00:06:15;;;;;;;0.93;0.70;;;;;;;;;;5080474;28;20586;-84
2023/03/25 00:08:41;;;;;;;0.93;0.90;;;;;;;;;;5084208;28;20479;-84
2023/03/25 00:11:08;;;;;;;0.83;0.80;;;;;;;;;;5078878;28;20579;-83
2023/03/25 00:13:34;;;;;;;1.63;0.70;;;;;;;;;;5078722;28;20532;-83
2023/03/25 00:16:01;;;;;;;1.00;1.00;;;;;;;;;;5089107;28;20457;-83
2023/03/25 00:18:28;;;;;;;1.20;1.10;;;;;;;;;;5082291;28;20967;-84
2023/03/25 00:20:56;;;;;;;1.63;0.70;;;;;;;;;;5083855;28;20426;-84
2023/03/25 00:23:22;;;;;;;0.80;0.80;;;;;;;;;;5078657;28;21278;-83
2023/03/25 00:25:51;;;;;;;1.57;0.87;;;;;;;;;;5087269;28;20962;-83
2023/03/25 00:28:17;;;;;;;3.30;0.80;;;;;;;;;;5080217;28;20857;-82
2023/03/25 00:30:44;;;;;;;1.40;1.40;;;;;;;;;;5076429;28;20443;-83
2023/03/25 00:33:12;;;;;;;1.37;0.80;;;;;;;;;;5077960;28;20642;-83
2023/03/25 00:35:43;;;;;;;0.77;0.77;;;;;;;;;;5082881;28;20917;-83
2023/03/25 00:38:09;;;;;;;1.80;0.70;;;;;;;;;;5081065;28;20793;-82
2023/03/25 00:40:35;;;;;;;1.03;1.00;;;;;;;;;;5087344;28;20423;-83
2023/03/25 00:43:02;;;;;;;2.63;0.80;;;;;;;;;;5074150;28;20463;-82
2023/03/25 00:45:28;;;;;;;3.43;1.10;;;;;;;;;;5081253;28;20652;-83
2023/03/25 00:47:55;;;;;;;0.77;0.77;;;;;;;;;;5078479;28;20640;-81
2023/03/25 00:50:21;;;;;;;2.77;0.93;;;;;;;;;;5079821;28;20498;-83
2023/03/25 00:52:47;;;;;;;0.80;0.80;;;;;;;;;;5080703;28;20431;-82
2023/03/25 00:55:14;;;;;;;4.00;1.50;;;;;;;;;;5080535;28;20423;-81
2023/03/25 00:57:40;;;;;;;1.87;1.00;;;;;;;;;;5081416;28;20424;-82
2023/03/25 01:00:07;;;;;;;2.10;0.80;;;;;;;;;;5082003;28;21110;-83
2023/03/25 01:02:33;;;;;;;1.13;1.10;;;;;;;;;;5087618;28;20748;-83
2023/03/25 01:05:00;;;;;;;1.17;1.10;;;;;;;;;;5075213;28;20451;-83
2023/03/25 01:07:28;;;;;;;2.73;1.20;;;;;;;;;;5072825;28;20431;-82
2023/03/25 01:09:54;;;;;;;1.37;1.27;;;;;;;;;;5071842;28;20815;-83
2023/03/25 01:12:20;;;;;;;1.60;0.87;;;;;;;;;;5084327;28;20432;-82
2023/03/25 01:14:47;;;;;;;4.10;1.00;;;;;;;;;;5078799;28;20444;-83
2023/03/25 01:17:13;;;;;;;0.90;0.90;;;;;;;;;;5070812;28;20428;-82
2023/03/25 01:19:39;;;;;;;2.93;0.87;;;;;;;;;;5079181;28;20466;-81
2023/03/25 01:22:05;;;;;;;4.27;1.33;;;;;;;;;;5092703;28;20432;-82
2023/03/25 01:24:31;;;;;;;1.23;0.90;;;;;;;;;;5079176;28;20840;-82
2023/03/25 01:26:57;;;;;;;1.47;1.40;;;;;;;;;;5080554;28;20928;-81
2023/03/25 01:29:23;;;;;;;0.93;0.93;;;;;;;;;;5077573;28;20429;-80
2023/03/25 01:31:50;;;;;;;1.03;0.80;;;;;;;;;;5074448;28;20492;-83
2023/03/25 01:34:16;;;;;;;2.30;1.00;;;;;;;;;;5083001;28;20448;-80
2023/03/25 01:36:45;;;;;;;4.90;1.23;;;;;;;;;;5073301;28;20428;-82
2023/03/25 01:39:11;;;;;;;6.27;1.30;;;;;;;;;;5074141;28;20601;-81
2023/03/25 01:41:37;;;;;;;1.17;1.17;;;;;;;;;;5071861;28;20431;-82
2023/03/25 01:44:08;;;;;;;3.60;0.97;;;;;;;;;;5081308;28;20467;-83
2023/03/25 01:46:34;;;;;;;4.00;1.00;;;;;;;;;;5077208;28;20463;-85
2023/03/25 01:49:02;;;;;;;2.70;1.20;;;;;;;;;;5083299;28;20987;-83
2023/03/25 01:51:30;;;;;;;4.23;1.03;;;;;;;;;;5090300;28;20440;-81
2023/03/25 01:53:56;;;;;;;2.20;0.80;;;;;;;;;;5085336;28;20564;-82
2023/03/25 01:56:25;;;;;;;1.40;1.30;;;;;;;;;;5100594;28;20474;-84
2023/03/25 01:58:52;;;;;;;2.60;2.07;;;;;;;;;;5104452;28;20432;-84
2023/03/25 02:01:21;;;;;;;1.23;0.63;;;;;;;;;;5102938;28;20970;-83
2023/03/25 02:03:50;;;;;;;0.87;0.87;;;;;;;;;;5063370;28;20463;-83
2023/03/25 02:06:23;;;;;;;1.53;1.00;;;;;;;;;;5091928;28;20971;-84
2023/03/25 02:08:51;;;;;;;2.40;0.70;;;;;;;;;;5082715;28;20447;-83
2023/03/25 02:11:17;;;;;;;1.03;1.03;;;;;;;;;;5084935;28;20444;-83
2023/03/25 02:13:44;;;;;;;0.60;0.60;;;;;;;;;;5078016;28;20448;-83
2023/03/25 02:16:22;;;;;;;0.70;0.70;;;;;;;;;;5084847;28;20935;-83
2023/03/25 02:19:07;;;;;;;1.00;1.00;;;;;;;;;;5085218;28;20464;-82
2023/03/25 02:21:44;;;;;;;1.23;1.10;;;;;;;;;;5080032;28;20423;-82
2023/03/25 02:24:23;;;;;;;0.97;0.70;;;;;;;;;;5086466;28;20455;-81
2023/03/25 02:27:13;;;;;;;2.87;0.63;;;;;;;;;;5091075;28;20439;-82
2023/03/25 02:29:48;;;;;;;1.80;1.43;;;;;;;;;;5081031;28;20436;-83
2023/03/25 02:32:26;;;;;;;1.20;1.20;;;;;;;;;;5079918;28;20849;-82
2023/03/25 02:35:11;;;;;;;0.60;0.60;;;;;;;;;;5072964;28;20524;-82
2023/03/25 02:37:52;;;;;;;1.60;0.80;;;;;;;;;;5084451;28;20435;-83
2023/03/25 02:40:21;;;;;;;1.30;0.83;;;;;;;;;;5079106;28;20421;-83
2023/03/25 02:42:55;;;;;;;1.43;1.33;;;;;;;;;;5079489;28;21266;-83
2023/03/25 02:45:30;;;;;;;1.30;1.10;;;;;;;;;;5082892;28;21088;-83
2023/03/25 02:48:00;;;;;;;0.70;0.70;;;;;;;;;;5078370;28;20518;-82
2023/03/25 02:50:29;;;;;;;1.63;0.70;;;;;;;;;;5080518;28;20419;-83
2023/03/25 02:52:57;;;;;;;4.70;1.03;;;;;;;;;;5081718;28;20572;-79
2023/03/25 02:55:24;;;;;;;0.80;0.80;;;;;;;;;;5077007;28;20431;-84
2023/03/25 02:57:53;;;;;;;0.80;0.80;;;;;;;;;;5083391;28;20919;-82
2023/03/25 03:00:22;;;;;;;2.20;0.97;;;;;;;;;;5083651;28;20427;-83
2023/03/25 03:02:58;;;;;;;0.87;0.87;;;;;;;;;;5083795;28;20463;-84
2023/03/25 03:05:27;;;;;;;1.00;1.00;;;;;;;;;;5094420;28;20423;-84
2023/03/25 03:07:56;;;;;;;0.50;0.50;;;;;;;;;;5089493;28;20427;-84
2023/03/25 03:10:24;;;;;;;0.77;0.77;;;;;;;;;;5090801;28;20438;-84
2023/03/25 03:12:53;;;;;;;2.00;0.63;;;;;;;;;;5096214;28;20437;-82
2023/03/25 03:15:31;;;;;;;2.30;1.00;;;;;;;;;;5092712;28;20416;-84
2023/03/25 03:18:06;;;;;;;0.70;0.70;;;;;;;;;;5097654;28;20495;-83
2023/03/25 03:20:41;;;;;;;1.90;0.90;;;;;;;;;;5094271;28;20919;-84
2023/03/25 03:23:19;;;;;;;0.60;0.60;;;;;;;;;;5065416;28;20613;-83
2023/03/25 03:25:48;;;;;;;0.70;0.70;;;;;;;;;;5088842;28;20443;-83
2023/03/25 03:28:15;;;;;;;0.90;0.90;;;;;;;;;;5087357;28;20451;-83
2023/03/25 03:30:47;;;;;;;0.53;0.53;;;;;;;;;;5091804;28;20510;-84
2023/03/25 03:33:37;;;;;;;1.47;1.37;;;;;;;;;;5076180;28;20444;-83
2023/03/25 03:36:06;;;;;;;0.77;0.77;;;;;;;;;;5086581;28;21019;-83
2023/03/25 03:38:34;;;;;;;1.17;1.10;;;;;;;;;;5080882;28;20961;-84
2023/03/25 03:41:03;;;;;;;1.40;1.40;;;;;;;;;;5086029;28;20927;-82
2023/03/25 03:43:56;;;;;;;1.33;0.90;;;;;;;;;;5071839;28;20483;-82
2023/03/25 03:46:30;;;;;;;1.13;0.87;;;;;;;;;;5074439;28;20555;-82
2023/03/25 03:48:57;;;;;;;1.07;1.07;;;;;;;;;;5078740;28;20539;-82
2023/03/25 03:51:24;;;;;;;1.13;1.00;;;;;;;;;;5087144;28;20431;-83
2023/03/25 03:53:57;;;;;;;0.70;0.70;;;;;;;;;;5091304;28;20435;-83
2023/03/25 03:56:25;;;;;;;0.87;0.87;;;;;;;;;;5090109;28;20678;-83
2023/03/25 03:58:57;;;;;;;1.40;1.30;;;;;;;;;;5086894;28;20530;-84
2023/03/25 04:01:44;;;;;;;1.70;1.50;;;;;;;;;;5105717;28;20420;-83
2023/03/25 04:04:12;;;;;;;0.70;0.70;;;;;;;;;;5102613;28;20447;-82
2023/03/25 04:06:45;;;;;;;1.20;1.07;;;;;;;;;;5095128;28;20432;-82
2023/03/25 04:09:17;;;;;;;2.33;1.57;;;;;;;;;;5071187;28;20515;-81
2023/03/25 04:11:44;;;;;;;1.13;1.13;;;;;;;;;;5088734;28;20443;-82
2023/03/25 04:14:10;;;;;;;1.30;1.30;;;;;;;;;;5078835;28;21223;-82
2023/03/25 04:16:36;;;;;;;1.60;1.10;;;;;;;;;;5091680;28;20439;-83
2023/03/25 04:19:04;;;;;;;5.37;0.60;;;;;;;;;;5077637;28;20449;-83
2023/03/25 04:21:30;;;;;;;1.53;1.20;;;;;;;;;;5094159;28;20975;-82
2023/03/25 04:24:00;;;;;;;4.00;1.40;;;;;;;;;;5080126;28;20476;-81
2023/03/25 04:26:26;;;;;;;3.17;1.53;;;;;;;;;;5093715;28;20455;-82
2023/03/25 04:28:52;;;;;;;2.23;2.03;;;;;;;;;;5088215;28;20981;-82
2023/03/25 04:31:18;;;;;;;1.70;0.80;;;;;;;;;;5090886;28;20547;-82
2023/03/25 04:33:45;;;;;;;0.77;0.77;;;;;;;;;;5078918;28;20436;-83
2023/03/25 04:36:12;;;;;;;0.70;0.70;;;;;;;;;;5077471;28;20450;-83
2023/03/25 04:38:39;;;;;;;0.93;0.90;;;;;;;;;;5073044;28;20448;-83
2023/03/25 04:41:05;;;;;;;2.03;1.20;;;;;;;;;;5078504;28;20436;-81
2023/03/25 04:43:32;;;;;;;0.83;0.83;;;;;;;;;;5081264;28;20472;-82
2023/03/25 04:45:59;;;;;;;2.30;2.13;;;;;;;;;;5086833;28;20785;-81
2023/03/25 04:48:29;;;;;;;2.43;1.33;;;;;;;;;;5073904;28;20605;-81
2023/03/25 04:51:00;;;;;;;4.53;0.93;;;;;;;;;;5082306;28;20779;-82
2023/03/25 04:53:26;;;;;;;1.00;1.00;;;;;;;;;;5075511;28;20723;-82
2023/03/25 04:55:52;;;;;;;1.97;1.87;;;;;;;;;;5085253;28;20479;-83
2023/03/25 04:58:19;;;;;;;7.43;0.70;;;;;;;;;;5083330;28;20451;-84
2023/03/25 05:00:46;;;;;;;1.70;1.03;;;;;;;;;;5088871;28;20416;-83
2023/03/25 05:03:12;;;;;;;2.60;1.03;;;;;;;;;;5072950;28;20550;-83
2023/03/25 05:05:38;;;;;;;0.80;0.80;;;;;;;;;;5088576;28;20454;-83
2023/03/25 05:08:04;;;;;;;3.50;0.97;;;;;;;;;;5081008;28;20456;-83
2023/03/25 05:10:30;;;;;;;1.40;1.10;;;;;;;;;;5086797;28;20420;-83
2023/03/25 05:13:00;;;;;;;4.93;1.50;;;;;;;;;;5079657;28;20499;-82
2023/03/25 05:15:27;;;;;;;2.47;1.30;;;;;;;;;;5081212;28;20427;-81
2023/03/25 05:17:53;;;;;;;1.23;1.23;;;;;;;;;;5073766;28;20526;-82
2023/03/25 05:20:21;;;;;;;3.43;1.17;;;;;;;;;;5078826;28;20426;-84
2023/03/25 05:22:47;;;;;;;1.67;1.57;;;;;;;;;;5094582;28;20491;-81
2023/03/25 05:25:14;;;;;;;4.00;1.13;;;;;;;;;;5106270;28;20419;-82
2023/03/25 05:27:40;;;;;;;2.63;1.27;;;;;;;;;;5102521;28;20462;-81
2023/03/25 05:30:07;;;;;;;2.40;1.50;;;;;;;;;;5080791;28;20423;-81
2023/03/25 05:32:33;;;;;;;1.60;1.10;;;;;;;;;;5087436;28;20427;-79
2023/03/25 05:35:00;;;;;;;2.90;1.43;;;;;;;;;;5076053;28;20443;-76
2023/03/25 05:37:26;;;;;;;1.10;1.10;;;;;;;;;;5076801;28;20955;-84
2023/03/25 05:39:52;;;;;;;0.90;0.90;;;;;;;;;;5080204;28;21011;-82
2023/03/25 05:42:21;;;;;;;1.03;1.03;;;;;;;;;;5087158;28;20432;-81
2023/03/25 05:44:49;;;;;;;1.70;1.20;;;;;;;;;;5077337;28;20472;-81
2023/03/25 05:47:16;;;;;;;2.57;1.20;;;;;;;;;;5083023;28;20444;-81
2023/03/25 05:49:42;;;;;;;4.80;1.67;;;;;;;;;;5072403;28;20471;-82
2023/03/25 05:52:10;;;;;;;1.90;1.80;;;;;;;;;;5080071;28;20797;-80
2023/03/25 05:54:40;;;;;;;3.63;0.70;;;;;;;;;;5079771;28;20474;-81
2023/03/25 05:57:06;;;;;;;1.60;1.50;;;;;;;;;;5081596;28;20416;-82
2023/03/25 05:59:32;;;;;;;5.40;1.33;;;;;;;;;;5072083;28;20445;-81
2023/03/25 06:01:59;;;;;;;1.90;1.43;;;;;;;;;;5071791;28;20496;-81
2023/03/25 06:04:24;;;;;;;1.53;1.13;;;;;;;;;;5073651;28;21066;-82
2023/03/25 06:06:51;;;;;;;3.03;2.30;;;;;;;;;;5086110;28;20437;-77
2023/03/25 06:09:17;;;;;;;1.17;1.10;;;;;;;;;;5090971;28;20432;-77
2023/03/25 06:11:43;;;;;;;3.47;1.10;;;;;;;;;;5107353;28;20431;-81
2023/03/25 06:14:09;;;;;;;0.97;0.97;;;;;;;;;;5090535;28;20480;-81
2023/03/25 06:16:35;;;;;;;1.70;1.67;;;;;;;;;;5091023;28;20423;-80
2023/03/25 06:19:02;;;;;;;4.47;1.77;;;;;;;;;;5087109;28;20467;-80
2023/03/25 06:21:28;;;;;;;1.53;1.43;;;;;;;;;;5084976;28;20816;-82
2023/03/25 06:23:55;;;;;;;1.23;1.13;;;;;;;;;;5071922;28;20456;-81
2023/03/25 06:26:23;;;;;;;2.93;1.00;;;;;;;;;;5079536;28;20445;-81
2023/03/25 06:28:49;;;;;;;4.00;2.33;;;;;;;;;;5072014;28;20575;-81
2023/03/25 06:31:16;;;;;;;1.60;1.23;;;;;;;;;;5082402;28;20431;-80
2023/03/25 06:33:45;;;;;;;2.83;1.30;;;;;;;;;;5075967;28;20491;-80
2023/03/25 06:36:14;;;;;;;2.10;1.10;;;;;;;;;;5083002;28;20463;-80
2023/03/25 06:38:40;;;;;;;1.80;0.87;;;;;;;;;;5074089;28;20477;-79
2023/03/25 06:41:06;;;;;;;1.90;1.23;;;;;;;;;;5081461;28;20428;-81
2023/03/25 06:43:32;;;;;;;3.03;1.57;;;;;;;;;;5076949;28;20467;-81
2023/03/25 06:45:58;;;;;;;1.90;1.50;;;;;;;;;;5073428;28;20479;-80
2023/03/25 06:48:25;;;;;;;3.60;1.20;;;;;;;;;;5078445;28;20475;-80
2023/03/25 06:50:52;;;;;;;1.20;1.20;;;;;;;;;;5072626;28;20519;-77
2023/03/25 06:53:18;;;;;;;4.40;1.87;;;;;;;;;;5084672;28;20396;-82
2023/03/25 06:55:44;;;;;;;3.10;1.00;;;;;;;;;;5075913;28;20839;-82
2023/03/25 06:58:10;;;;;;;3.40;1.57;;;;;;;;;;5076211;28;20392;-82
2023/03/25 07:00:37;;;;;;;1.50;1.43;;;;;;;;;;5074226;28;20518;-82
2023/03/25 07:03:03;;;;;;;1.93;1.63;;;;;;;;;;5068608;28;20997;-82
2023/03/25 07:05:29;;;;;;;5.37;1.33;;;;;;;;;;5080555;28;20419;-83
2023/03/25 07:07:55;;;;;;;2.20;1.47;;;;;;;;;;5080919;28;20948;-78
2023/03/25 07:10:21;;;;;;;11.80;2.37;;;;;;;;;;5076086;28;20833;-83
2023/03/25 07:12:47;;;;;;;2.90;1.77;;;;;;;;;;5073803;28;20672;-81
2023/03/25 07:15:13;;;;;;;0.97;0.97;;;;;;;;;;5076333;28;20424;-80
2023/03/25 07:17:39;;;;;;;4.13;1.57;;;;;;;;;;5081092;28;20431;-83
2023/03/25 07:20:06;;;;;;;3.90;1.53;;;;;;;;;;5085886;28;20432;-82
2023/03/25 07:22:32;;;;;;;1.20;1.03;;;;;;;;;;5085810;28;20432;-85
2023/03/25 07:24:58;;;;;;;3.10;1.77;;;;;;;;;;5095917;28;20415;-82
2023/03/25 07:27:25;;;;;;;7.93;1.63;;;;;;;;;;5077644;28;20458;-82
2023/03/25 07:29:51;;;;;;;3.90;1.77;;;;;;;;;;5080472;28;20841;-82
2023/03/25 07:32:18;;;;;;;3.00;1.27;;;;;;;;;;5083269;28;20439;-79
2023/03/25 07:34:44;;;;;;;2.00;1.67;;;;;;;;;;5083432;28;21127;-81
2023/03/25 07:37:10;;;;;;;5.63;1.50;;;;;;;;;;5080988;28;20543;-84
2023/03/25 07:39:36;;;;;;;3.80;1.87;;;;;;;;;;5086246;28;20428;-83
2023/03/25 07:42:02;;;;;;;2.70;1.50;;;;;;;;;;5078657;28;20525;-82
2023/03/25 07:44:28;;;;;;;1.70;1.40;;;;;;;;;;5084506;28;20676;-83
2023/03/25 07:46:54;;;;;;;1.30;1.30;;;;;;;;;;5077223;28;20498;-83
2023/03/25 07:49:20;;;;;;;2.33;1.07;;;;;;;;;;5085492;28;20543;-80
2023/03/25 07:51:46;;;;;;;2.43;1.37;;;;;;;;;;5076977;28;20496;-81
2023/03/25 07:54:12;;;;;;;2.77;1.10;;;;;;;;;;5082514;28;20419;-82
2023/03/25 07:56:38;;;;;;;7.90;1.40;;;;;;;;;;5085749;28;20436;-82
2023/03/25 07:59:04;;;;;;;3.97;1.57;;;;;;;;;;5082105;28;20424;-79
2023/03/25 08:01:30;;;;;;;2.30;2.20;;;;;;;;;;5083453;28;20929;-82
2023/03/25 08:03:57;;;;;;;5.13;2.03;;;;;;;;;;5092081;28;20845;-80
2023/03/25 08:06:23;;;;;;;6.33;2.20;;;;;;;;;;5085197;28;20439;-81
2023/03/25 08:08:49;;;;;;;4.80;2.37;;;;;;;;;;5088686;28;20436;-78
2023/03/25 08:11:15;;;;;;;3.47;1.23;;;;;;;;;;5071880;28;21073;-77
2023/03/25 08:13:41;;;;;;;2.20;1.47;;;;;;;;;;5085575;28;20551;-79
2023/03/25 08:16:14;;;;;;;2.47;1.90;;;;;;;;;;5076954;28;20444;-77
2023/03/25 08:18:43;;;;;;;3.83;1.60;;;;;;;;;;5094372;28;20477;-78
2023/03/25 08:21:09;;;;;;;3.33;2.90;;;;;;;;;;5101131;28;20432;-79
2023/03/25 08:23:35;;;;;;;3.10;0.83;;;;;;;;;;5072334;28;20455;-77
2023/03/25 08:26:02;;;;;;;4.33;1.73;;;;;;;;;;5069947;28;20458;-78
2023/03/25 08:28:28;;;;;;;9.53;2.80;;;;;;;;;;5079917;28;20520;-79
2023/03/25 08:30:54;;;;;;;7.63;1.13;;;;;;;;;;5081370;28;20717;-80
2023/03/25 08:33:20;;;;;;;2.40;1.80;;;;;;;;;;5085540;28;20419;-79
2023/03/25 08:35:46;;;;;;;4.93;1.60;;;;;;;;;;5079989;28;20463;-81
2023/03/25 08:38:13;;;;;;;6.20;2.30;;;;;;;;;;5082340;28;21010;-78
2023/03/25 08:40:39;;;;;;;2.33;1.87;;;;;;;;;;5081488;28;20440;-76
2023/03/25 08:43:06;;;;;;;3.23;1.40;;;;;;;;;;5070928;28;20969;-79
2023/03/25 08:45:33;;;;;;;2.73;2.37;;;;;;;;;;5086201;28;20436;-78
2023/03/25 08:48:00;;;;;;;7.10;1.87;;;;;;;;;;5082386;28;20486;-79
2023/03/25 08:50:26;;;;;;;1.20;1.20;;;;;;;;;;5091103;28;20891;-79
2023/03/25 08:52:56;;;;;;;2.70;2.13;;;;;;;;;;5092395;28;20828;-76
2023/03/25 08:55:22;;;;;;;4.80;2.43;;;;;;;;;;5083335;28;20666;-78
2023/03/25 08:57:49;;;;;;;2.00;1.70;;;;;;;;;;5081869;28;20413;-78
2023/03/25 09:00:22;;;;;;;6.27;1.60;;;;;;;;;;5079772;28;20440;-77
2023/03/25 09:02:49;;;;;;;3.80;1.90;;;;;;;;;;5077324;28;20527;-77
2023/03/25 09:05:15;;;;;;;2.73;1.10;;;;;;;;;;5077439;28;20440;-77
2023/03/25 09:07:41;;;;;;;6.00;1.50;;;;;;;;;;5075322;28;20428;-79
2023/03/25 09:10:08;;;;;;;7.10;1.70;;;;;;;;;;5082789;28;20792;-79
2023/03/25 09:12:34;;;;;;;19.57;1.70;;;;;;;;;;5070895;28;20485;-79
2023/03/25 09:15:00;;;;;;;2.73;1.27;;;;;;;;;;5073189;28;20862;-79
2023/03/25 09:17:26;;;;;;;1.53;1.43;;;;;;;;;;5077299;28;20527;-80
2023/03/25 09:19:52;;;;;;;8.30;1.43;;;;;;;;;;5081461;28;20412;-77
2023/03/25 09:22:19;;;;;;;2.83;1.43;;;;;;;;;;5078617;28;20448;-78
2023/03/25 09:24:45;;;;;;;1.03;0.63;;;;;;;;;;5069411;28;20470;-77
2023/03/25 09:27:11;;;;;;;1.83;1.00;;;;;;;;;;5074891;28;20908;-77
2023/03/25 09:29:37;;;;;;;6.47;1.57;;;;;;;;;;5083574;28;20754;-78
2023/03/25 09:32:03;;;;;;;5.67;1.30;;;;;;;;;;5081968;28;20486;-78
2023/03/25 09:34:29;;;;;;;3.67;1.47;;;;;;;;;;5085184;28;20423;-77
2023/03/25 09:36:56;;;;;;;4.60;2.07;;;;;;;;;;5080187;28;20440;-78
2023/03/25 09:39:22;;;;;;;4.70;2.73;;;;;;;;;;5085048;28;20947;-78
2023/03/25 09:42:04;;;;;;;2.67;2.30;;;;;;;;;;5069086;28;20437;-78
2023/03/25 09:44:35;;;;;;;5.27;1.27;;;;;;;;;;5073877;28;20511;-78
2023/03/25 09:47:05;;;;;;;3.03;1.50;;;;;;;;;;5078147;28;20432;-79
2023/03/25 09:49:42;;;;;;;3.47;1.90;;;;;;;;;;5075505;28;20448;-80
2023/03/25 09:52:15;;;;;;;4.20;1.60;;;;;;;;;;5079523;28;20571;-77
2023/03/25 09:54:44;;;;;;;2.27;1.30;;;;;;;;;;5075812;28;20500;-80
2023/03/25 09:57:13;;;;;;;7.53;1.80;;;;;;;;;;5078929;28;20933;-75
2023/03/25 09:59:42;;;;;;;1.93;1.70;;;;;;;;;;5078070;28;20439;-78
2023/03/25 10:02:14;;;;;;;2.37;1.53;;;;;;;;;;5084588;28;20436;-80
2023/03/25 10:04:43;;;;;;;6.60;1.87;;;;;;;;;;5076059;28;20475;-79
2023/03/25 10:07:15;;;;;;;3.17;2.07;;;;;;;;;;5077752;28;20427;-76
2023/03/25 10:09:47;;;;;;;1.57;1.53;;;;;;;;;;5074352;28;20431;-78
2023/03/25 10:12:28;;;;;;;3.03;1.63;;;;;;;;;;5071155;28;20444;-80
2023/03/25 10:15:02;;;;;;;4.03;1.07;;;;;;;;;;5080289;28;20497;-80
2023/03/25 10:17:32;;;;;;;13.07;4.00;;;;;;;;;;5077504;28;20428;-78
2023/03/25 10:20:04;;;;;;;4.17;1.43;;;;;;;;;;5083417;28;20511;-83
2023/03/25 10:22:41;;;;;;;2.80;1.17;;;;;;;;;;5100359;28;20469;-81
2023/03/25 10:25:13;;;;;;;6.13;1.90;;;;;;;;;;5100299;28;20453;-83
2023/03/25 10:27:44;;;;;;;6.63;2.23;;;;;;;;;;5109791;28;20397;-83
2023/03/25 10:30:14;;;;;;;6.47;1.87;;;;;;;;;;5100616;28;20414;-81
2023/03/25 10:32:45;;;;;;;7.70;1.80;;;;;;;;;;5111558;28;20446;-81
2023/03/25 10:35:23;;;;;;;3.80;1.67;;;;;;;;;;5109871;28;20443;-83
2023/03/25 10:37:50;;;;;;;2.00;1.30;;;;;;;;;;5100229;28;20439;-79
2023/03/25 10:40:19;;;;;;;2.10;1.30;;;;;;;;;;5103106;28;20432;-82
2023/03/25 10:42:54;;;;;;;4.83;1.77;;;;;;;;;;5093568;28;20432;-81
2023/03/25 10:45:20;;;;;;;3.13;1.10;;;;;;;;;;5097374;28;20534;-80
2023/03/25 10:47:47;;;;;;;4.47;1.67;;;;;;;;;;5104058;28;20448;-81
2023/03/25 10:50:15;;;;;;;1.40;1.30;;;;;;;;;;5093725;28;20903;-82
2023/03/25 10:52:41;;;;;;;1.20;1.10;;;;;;;;;;5099196;28;20444;-85
2023/03/25 10:55:15;;;;;;;3.13;1.70;;;;;;;;;;5100249;28;20447;-82
2023/03/25 10:57:49;;;;;;;5.60;1.73;;;;;;;;;;5093250;28;20430;-83
2023/03/25 11:00:19;;;;;;;1.00;1.00;;;;;;;;;;5091638;28;20408;-82
2023/03/25 11:02:46;;;;;;;10.03;2.53;;;;;;;;;;5082693;28;20982;-82
2023/03/25 11:05:15;;;;;;;3.53;1.70;;;;;;;;;;5084866;28;20417;-81
2023/03/25 11:07:43;;;;;;;3.73;1.90;;;;;;;;;;5096141;28;20455;-81
2023/03/25 11:10:31;;;;;;;11.03;1.83;;;;;;;;;;5091800;28;20419;-82
2023/03/25 11:13:02;;;;;;;2.47;2.27;;;;;;;;;;5086396;28;20451;-82
2023/03/25 11:15:35;;;;;;;6.87;2.37;;;;;;;;;;5084856;28;20786;-83
2023/03/25 11:18:04;;;;;;;6.97;1.50;;;;;;;;;;5073306;28;20441;-81
2023/03/25 11:20:35;;;;;;;2.30;2.20;;;;;;;;;;5092355;28;20412;-84
2023/03/25 11:23:21;;;;;;;2.90;1.73;;;;;;;;;;5074345;28;20551;-81
2023/03/25 11:25:48;;;;;;;3.27;2.00;;;;;;;;;;5069771;28;20480;-82
2023/03/25 11:28:17;;;;;;;6.20;1.73;;;;;;;;;;5073182;28;20460;-80
2023/03/25 11:31:02;;;;;;;6.83;2.40;;;;;;;;;;5082830;28;20428;-79
2023/03/25 11:33:28;;;;;;;7.43;2.20;;;;;;;;;;5067523;28;20443;-79
2023/03/25 11:35:54;;;;;;;2.90;1.93;;;;;;;;;;5078699;28;20468;-80
2023/03/25 11:38:22;;;;;;;7.70;2.53;;;;;;;;;;5083406;28;20473;-81
2023/03/25 11:40:50;;;;;;;4.27;2.00;;;;;;;;;;5075040;28;20842;-80
2023/03/25 11:43:20;;;;;;;3.33;2.30;;;;;;;;;;5080730;28;20525;-78
2023/03/25 11:45:46;;;;;;;2.77;1.27;;;;;;;;;;5080162;28;20797;-80
2023/03/25 11:48:16;;;;;;;7.97;2.97;;;;;;;;;;5070568;28;20514;-82
2023/03/25 11:50:51;;;;;;;9.90;2.67;;;;;;;;;;5077090;28;20791;-79
2023/03/25 11:53:19;;;;;;;4.80;1.97;;;;;;;;;;5076429;28;20962;-80
2023/03/25 11:55:46;;;;;;;4.60;1.33;;;;;;;;;;5088163;28;20419;-79
2023/03/25 11:58:16;;;;;;;1.33;1.20;;;;;;;;;;5075169;28;20485;-82
2023/03/25 12:00:46;;;;;;;3.57;2.17;;;;;;;;;;5081607;28;20712;-81
2023/03/25 12:03:17;;;;;;;5.57;2.00;;;;;;;;;;5085296;28;20463;-81
2023/03/25 12:05:55;;;;;;;4.87;2.03;;;;;;;;;;5083945;28;20411;-82
2023/03/25 12:08:21;;;;;;;8.67;2.63;;;;;;;;;;5089204;28;20451;-81
2023/03/25 12:10:50;;;;;;;7.23;2.40;;;;;;;;;;5103742;28;20442;-83
2023/03/25 12:13:17;;;;;;;2.37;2.00;;;;;;;;;;5087305;28;20452;-83
2023/03/25 12:15:50;;;;;;;2.30;2.10;;;;;;;;;;5082876;28;20736;-81
2023/03/25 12:18:25;;;;;;;1.60;1.27;;;;;;;;;;5087532;28;20432;-83
2023/03/25 12:21:13;;;;;;;2.03;1.40;;;;;;;;;;5081009;28;20428;-82
2023/03/25 12:23:54;;;;;;;1.60;0.70;;;;;;;;;;5083178;28;20455;-83
2023/03/25 12:26:28;;;;;;;1.90;1.80;;;;;;;;;;5072174;28;20512;-83
2023/03/25 12:29:01;;;;;;;1.40;0.80;;;;;;;;;;5080318;28;20524;-83
2023/03/25 12:31:36;;;;;;;4.10;1.27;;;;;;;;;;5080991;28;20427;-82
2023/03/25 12:34:18;;;;;;;1.50;1.17;;;;;;;;;;5072854;28;20447;-80
2023/03/25 12:36:47;;;;;;;1.77;1.10;;;;;;;;;;5096387;28;20476;-81
2023/03/25 12:39:31;;;;;;;1.27;1.27;;;;;;;;;;5104168;28;20427;-82
2023/03/25 12:42:16;;;;;;;2.33;1.63;;;;;;;;;;5093279;28;20428;-83
2023/03/25 12:44:48;;;;;;;1.40;0.77;;;;;;;;;;5076002;28;20480;-81
2023/03/25 12:47:16;;;;;;;1.40;1.40;;;;;;;;;;5085125;28;20448;-82
2023/03/25 12:50:01;;;;;;;2.00;0.70;;;;;;;;;;5087710;28;20884;-83
2023/03/25 12:52:34;;;;;;;1.70;1.70;;;;;;;;;;5086850;28;20423;-83
2023/03/25 12:55:05;;;;;;;4.77;1.47;;;;;;;;;;5082372;28;20884;-82
2023/03/25 12:58:06;;;;;;;2.60;1.83;;;;;;;;;;5069719;28;20493;-82
2023/03/25 13:00:40;;;;;;;5.00;1.30;;;;;;;;;;5022116;28;20505;-86
2023/03/25 13:03:18;;;;;;;1.40;1.07;;;;;;;;;;5083694;28;20460;-82
2023/03/25 13:05:56;;;;;;;7.60;2.40;;;;;;;;;;5079917;28;20425;-81
2023/03/25 13:08:31;;;;;;;1.33;1.33;;;;;;;;;;5075961;28;20770;-83
2023/03/25 13:11:06;;;;;;;3.03;2.13;;;;;;;;;;5089963;28;20852;-83
2023/03/25 13:13:33;;;;;;;4.53;2.17;;;;;;;;;;5077557;28;20890;-81
2023/03/25 13:16:15;;;;;;;3.17;1.83;;;;;;;;;;5072000;28;20428;-84
2023/03/25 13:19:02;;;;;;;3.60;1.97;;;;;;;;;;5070574;28;20440;-84
2023/03/25 13:21:33;;;;;;;2.47;2.27;;;;;;;;;;5084858;28;20439;-84
2023/03/25 13:24:11;;;;;;;2.30;1.40;;;;;;;;;;5083780;28;20463;-82
2023/03/25 13:26:38;;;;;;;7.63;1.40;;;;;;;;;;5070506;28;20428;-82
2023/03/25 13:29:05;;;;;;;7.97;3.20;;;;;;;;;;5079173;28;20735;-82
2023/03/25 13:31:40;;;;;;;2.67;1.47;;;;;;;;;;5080803;28;21101;-84
2023/03/25 13:34:25;;;;;;;2.57;1.17;;;;;;;;;;5068466;28;20970;-83
2023/03/25 13:36:57;;;;;;;2.03;1.93;;;;;;;;;;5079496;28;20491;-82
2023/03/25 13:39:30;;;;;;;1.50;1.20;;;;;;;;;;5070001;28;20865;-84
2023/03/25 13:42:01;;;;;;;9.53;3.40;;;;;;;;;;5077487;28;20757;-83
2023/03/25 13:44:34;;;;;;;2.77;1.70;;;;;;;;;;5068995;28;20495;-84
2023/03/25 13:47:13;;;;;;;1.90;1.70;;;;;;;;;;5076950;28;20451;-85
2023/03/25 13:49:45;;;;;;;0.67;0.67;;;;;;;;;;5078602;28;20449;-81
2023/03/25 13:52:13;;;;;;;1.87;1.73;;;;;;;;;;5075696;28;20446;-81
2023/03/25 13:54:45;;;;;;;1.57;1.43;;;;;;;;;;5087060;28;20471;-85
2023/03/25 13:57:18;;;;;;;1.23;1.13;;;;;;;;;;5093751;28;20449;-85
2023/03/25 13:59:44;;;;;;;1.00;1.00;;;;;;;;;;5094799;28;20412;-85
2023/03/25 14:02:16;;;;;;;1.10;1.00;;;;;;;;;;5094222;28;21153;-84
2023/03/25 14:04:51;;;;;;;1.40;1.30;;;;;;;;;;5072999;28;20471;-85
2023/03/25 14:07:42;;;;;;;2.77;1.53;;;;;;;;;;5076551;28;20512;-83
2023/03/25 14:10:20;;;;;;;2.53;1.50;;;;;;;;;;5088653;28;20865;-83
2023/03/25 14:12:50;;;;;;;1.37;1.27;;;;;;;;;;5075301;28;20444;-83
2023/03/25 14:15:23;;;;;;;1.10;1.10;;;;;;;;;;5080475;28;20440;-85
2023/03/25 14:17:53;;;;;;;3.50;1.17;;;;;;;;;;5073232;28;20962;-84
2023/03/25 14:20:24;;;;;;;2.93;1.33;;;;;;;;;;5085125;28;20424;-83
2023/03/25 14:22:55;;;;;;;3.90;2.07;;;;;;;;;;5073623;28;20436;-82
2023/03/25 14:25:27;;;;;;;0.40;0.40;;;;;;;;;;5094395;28;20404;-82
2023/03/25 14:27:54;;;;;;;3.93;1.47;;;;;;;;;;5077696;28;20573;-80
2023/03/25 14:30:21;;;;;;;1.20;1.10;;;;;;;;;;5080145;28;20845;-81
2023/03/25 14:32:47;;;;;;;1.53;1.20;;;;;;;;;;5079958;28;20436;-79
2023/03/25 14:35:32;;;;;;;2.20;1.10;;;;;;;;;;5080023;28;20429;-81
2023/03/25 14:38:07;;;;;;;9.53;1.37;;;;;;;;;;5073432;28;20556;-81
2023/03/25 14:40:42;;;;;;;4.53;2.53;;;;;;;;;;5072476;28;20476;-79
2023/03/25 14:43:20;;;;;;;1.80;1.60;;;;;;;;;;5088221;28;20451;-79
2023/03/25 14:46:05;;;;;;;4.83;2.17;;;;;;;;;;5083988;28;20428;-78
2023/03/25 14:48:33;;;;;;;3.13;2.17;;;;;;;;;;5102134;28;20524;-79
2023/03/25 14:51:18;;;;;;;5.10;1.10;;;;;;;;;;5075564;28;20704;-78
2023/03/25 14:53:55;;;;;;;3.40;1.87;;;;;;;;;;5075061;28;20921;-79
2023/03/25 14:56:25;;;;;;;2.57;1.27;;;;;;;;;;5069979;28;21160;-79
2023/03/25 14:58:57;;;;;;;2.87;1.57;;;;;;;;;;5076714;28;21078;-78